Nissin Maru — JL6697 — position and weather

sailwx.info

Track history (hours):
 
Tides and Currents Weather Stations Pressure Air Temp Water Temp Dewpoint Dewpoint Depression Visibility Wind Speed Wind Dir Waves Ship Positions

Nissin Maru

Last reported at 2017-Nov-19 05:24 UTC. Time now 2017-Nov-24 03:34 UTC.
Position N 35°22' E 139°53'.

Length 73 m; draft 4 m.

Type: Cargo ship. MMSI: 431501779.

Date/timePositionNaut miles runAvg speedWind from/ knotsBaromVisibWave heightAir tempDewpointWater temp
2017-Nov-19 05:24N 35°22' E 139°53'4 9.5
2017-Nov-19 05:00N 35°23' E 139°49'510.4
2017-Nov-19 04:30N 35°20' E 139°44'611.1
2017-Nov-19 04:00N 35°14' E 139°47'611.0
2017-Nov-19 03:30N 35°09' E 139°45'510.7
2017-Nov-19 03:00N 35°05' E 139°41'611.1
2017-Nov-19 02:29N 35°01' E 139°35'234 9.7
2017-Nov-18 02:21N 34°03' E 134°60'512.2
2017-Nov-18 01:59N 34°08' E 134°59'1011.2
2017-Nov-18 01:04N 34°18' E 134°59'310.6
2017-Nov-18 00:47N 34°21' E 134°60'410.8
2017-Nov-18 00:23N 34°25' E 135°01'411.0
2017-Nov-18 00:00N 34°29' E 135°02'510.2
2017-Nov-17 23:30N 34°34' E 135°03'3 6.3
2017-Nov-17 23:00N 34°37' E 135°01'25 0.6
2017-Nov-16 05:14N 34°12' E 134°54'313.3
2017-Nov-16 04:59N 34°13' E 134°58'612.4
2017-Nov-16 04:30N 34°14' E 135°05'3 5.5
2017-Nov-16 04:00N 34°14' E 135°08'0 0.0
2017-Nov-16 03:30N 34°14' E 135°08'0 0.0
2017-Nov-16 02:57N 34°14' E 135°08'0 0.0
2017-Nov-16 02:30N 34°14' E 135°08'0 0.0
2017-Nov-16 02:00N 34°14' E 135°08'0 0.0
2017-Nov-16 01:30N 34°14' E 135°08'0 0.0
2017-Nov-16 01:00N 34°14' E 135°08'0 0.0
2017-Nov-16 00:24N 34°14' E 135°08'0 0.0
2017-Nov-16 00:00N 34°14' E 135°08'0 0.0
2017-Nov-15 23:27N 34°14' E 135°08'0 0.0
2017-Nov-15 22:57N 34°14' E 135°08'0 0.0
2017-Nov-15 22:27N 34°14' E 135°08'0 0.3
2017-Nov-15 22:00N 34°14' E 135°08'2 3.4
2017-Nov-15 21:22N 34°15' E 135°05'0 0.0
2017-Nov-15 20:58N 34°15' E 135°05'0 0.0
2017-Nov-15 20:28N 34°15' E 135°05'0 0.0
2017-Nov-15 19:58N 34°15' E 135°05'0 0.0
2017-Nov-15 19:25N 34°15' E 135°05'0 0.0
2017-Nov-15 18:58N 34°15' E 135°05'0 0.0
2017-Nov-15 18:28N 34°15' E 135°05'0 0.0
2017-Nov-15 17:58N 34°15' E 135°05'0 0.0
2017-Nov-15 17:28N 34°15' E 135°05'0 0.0
2017-Nov-15 16:58N 34°15' E 135°05'0 0.0
2017-Nov-15 16:28N 34°15' E 135°05'0 0.1
2017-Nov-15 15:58N 34°15' E 135°05'0 0.0
2017-Nov-15 15:28N 34°15' E 135°05'0 0.1
2017-Nov-15 14:58N 34°15' E 135°05'3 6.6
2017-Nov-15 14:30N 34°14' E 135°02'  
2017-Nov-13 01:52N 34°15' E 135°05'0 0.0
2017-Nov-13 01:25N 34°15' E 135°05'0 0.0
2017-Nov-13 00:58N 34°15' E 135°05'0 0.0
2017-Nov-13 00:29N 34°15' E 135°05'0 0.1
2017-Nov-12 23:58N 34°15' E 135°05'0 0.1
2017-Nov-12 23:28N 34°15' E 135°05'2 0.3
2017-Nov-12 16:14N 34°14' E 135°08'0 0.0
2017-Nov-12 15:59N 34°14' E 135°08'0 0.1
2017-Nov-12 15:29N 34°14' E 135°08'0 0.1
2017-Nov-12 14:59N 34°14' E 135°08'0 0.0
2017-Nov-12 14:29N 34°14' E 135°08'0 0.1
2017-Nov-12 13:59N 34°14' E 135°08'0 0.1
2017-Nov-12 13:29N 34°14' E 135°08'0 0.0
2017-Nov-12 12:59N 34°14' E 135°08'0 0.0
2017-Nov-12 12:29N 34°14' E 135°08'0 0.1
2017-Nov-12 11:59N 34°14' E 135°08'0 0.1
2017-Nov-12 11:29N 34°14' E 135°08'0 0.0
2017-Nov-12 10:59N 34°14' E 135°08'0 0.0
2017-Nov-12 10:29N 34°14' E 135°08'0 0.0
2017-Nov-12 09:59N 34°14' E 135°08'0 0.0
2017-Nov-12 09:29N 34°14' E 135°08'0 0.0
2017-Nov-12 08:59N 34°14' E 135°08'0 0.1
2017-Nov-12 08:29N 34°14' E 135°08'0 0.1
2017-Nov-12 07:59N 34°14' E 135°08'0 0.0
2017-Nov-12 07:29N 34°14' E 135°08'0 0.1
2017-Nov-12 06:59N 34°14' E 135°08'0 0.0
2017-Nov-12 06:29N 34°14' E 135°08'0 0.1
2017-Nov-12 05:59N 34°14' E 135°08'0 0.0
2017-Nov-12 05:29N 34°14' E 135°08'0 0.0
2017-Nov-12 04:59N 34°14' E 135°08'0 0.0
2017-Nov-12 04:29N 34°14' E 135°08'0 0.0
2017-Nov-12 03:59N 34°14' E 135°08'0 0.1
2017-Nov-12 03:29N 34°14' E 135°08'0 0.1
2017-Nov-12 02:59N 34°14' E 135°08'1 2.6
2017-Nov-12 02:30N 34°14' E 135°06'5 9.2
2017-Nov-12 02:00N 34°10' E 135°04'  
Track history (hours):
 
Tides and Currents Weather Stations Pressure Air Temp Water Temp Dewpoint Dewpoint Depression Visibility Wind Speed Wind Dir Waves Ship Positions

Nissin Maru

Last reported at 2017-Nov-19 05:24 UTC. Time now 2017-Nov-24 03:34 UTC.
Position N 35°22' E 139°53'.

Length 73 m; draft 4 m.

Type: Cargo ship. MMSI: 431501779.

Date/timePositionNaut miles runAvg speedWind from/ knotsBaromVisibWave heightAir tempDewpointWater temp
2017-Nov-19 05:24N 35°22' E 139°53'4 9.5
2017-Nov-19 05:00N 35°23' E 139°49'510.4
2017-Nov-19 04:30N 35°20' E 139°44'611.1
2017-Nov-19 04:00N 35°14' E 139°47'611.0
2017-Nov-19 03:30N 35°09' E 139°45'510.7
2017-Nov-19 03:00N 35°05' E 139°41'611.1
2017-Nov-19 02:29N 35°01' E 139°35'234 9.7
2017-Nov-18 02:21N 34°03' E 134°60'512.2
2017-Nov-18 01:59N 34°08' E 134°59'1011.2
2017-Nov-18 01:04N 34°18' E 134°59'310.6
2017-Nov-18 00:47N 34°21' E 134°60'410.8
2017-Nov-18 00:23N 34°25' E 135°01'411.0
2017-Nov-18 00:00N 34°29' E 135°02'510.2
2017-Nov-17 23:30N 34°34' E 135°03'3 6.3
2017-Nov-17 23:00N 34°37' E 135°01'25 0.6
2017-Nov-16 05:14N 34°12' E 134°54'313.3
2017-Nov-16 04:59N 34°13' E 134°58'612.4
2017-Nov-16 04:30N 34°14' E 135°05'3 5.5
2017-Nov-16 04:00N 34°14' E 135°08'0 0.0
2017-Nov-16 03:30N 34°14' E 135°08'0 0.0
2017-Nov-16 02:57N 34°14' E 135°08'0 0.0
2017-Nov-16 02:30N 34°14' E 135°08'0 0.0
2017-Nov-16 02:00N 34°14' E 135°08'0 0.0
2017-Nov-16 01:30N 34°14' E 135°08'0 0.0
2017-Nov-16 01:00N 34°14' E 135°08'0 0.0
2017-Nov-16 00:24N 34°14' E 135°08'0 0.0
2017-Nov-16 00:00N 34°14' E 135°08'0 0.0
2017-Nov-15 23:27N 34°14' E 135°08'0 0.0
2017-Nov-15 22:57N 34°14' E 135°08'0 0.0
2017-Nov-15 22:27N 34°14' E 135°08'0 0.3
2017-Nov-15 22:00N 34°14' E 135°08'2 3.4
2017-Nov-15 21:22N 34°15' E 135°05'0 0.0
2017-Nov-15 20:58N 34°15' E 135°05'0 0.0
2017-Nov-15 20:28N 34°15' E 135°05'0 0.0
2017-Nov-15 19:58N 34°15' E 135°05'0 0.0
2017-Nov-15 19:25N 34°15' E 135°05'0 0.0
2017-Nov-15 18:58N 34°15' E 135°05'0 0.0
2017-Nov-15 18:28N 34°15' E 135°05'0 0.0
2017-Nov-15 17:58N 34°15' E 135°05'0 0.0
2017-Nov-15 17:28N 34°15' E 135°05'0 0.0
2017-Nov-15 16:58N 34°15' E 135°05'0 0.0
2017-Nov-15 16:28N 34°15' E 135°05'0 0.1
2017-Nov-15 15:58N 34°15' E 135°05'0 0.0
2017-Nov-15 15:28N 34°15' E 135°05'0 0.1
2017-Nov-15 14:58N 34°15' E 135°05'3 6.6
2017-Nov-15 14:30N 34°14' E 135°02'  
2017-Nov-13 01:52N 34°15' E 135°05'0 0.0
2017-Nov-13 01:25N 34°15' E 135°05'0 0.0
2017-Nov-13 00:58N 34°15' E 135°05'0 0.0
2017-Nov-13 00:29N 34°15' E 135°05'0 0.1
2017-Nov-12 23:58N 34°15' E 135°05'0 0.1
2017-Nov-12 23:28N 34°15' E 135°05'2 0.3
2017-Nov-12 16:14N 34°14' E 135°08'0 0.0
2017-Nov-12 15:59N 34°14' E 135°08'0 0.1
2017-Nov-12 15:29N 34°14' E 135°08'0 0.1
2017-Nov-12 14:59N 34°14' E 135°08'0 0.0
2017-Nov-12 14:29N 34°14' E 135°08'0 0.1
2017-Nov-12 13:59N 34°14' E 135°08'0 0.1
2017-Nov-12 13:29N 34°14' E 135°08'0 0.0
2017-Nov-12 12:59N 34°14' E 135°08'0 0.0
2017-Nov-12 12:29N 34°14' E 135°08'0 0.1
2017-Nov-12 11:59N 34°14' E 135°08'0 0.1
2017-Nov-12 11:29N 34°14' E 135°08'0 0.0
2017-Nov-12 10:59N 34°14' E 135°08'0 0.0
2017-Nov-12 10:29N 34°14' E 135°08'0 0.0
2017-Nov-12 09:59N 34°14' E 135°08'0 0.0
2017-Nov-12 09:29N 34°14' E 135°08'0 0.0
2017-Nov-12 08:59N 34°14' E 135°08'0 0.1
2017-Nov-12 08:29N 34°14' E 135°08'0 0.1
2017-Nov-12 07:59N 34°14' E 135°08'0 0.0
2017-Nov-12 07:29N 34°14' E 135°08'0 0.1
2017-Nov-12 06:59N 34°14' E 135°08'0 0.0
2017-Nov-12 06:29N 34°14' E 135°08'0 0.1
2017-Nov-12 05:59N 34°14' E 135°08'0 0.0
2017-Nov-12 05:29N 34°14' E 135°08'0 0.0
2017-Nov-12 04:59N 34°14' E 135°08'0 0.0
2017-Nov-12 04:29N 34°14' E 135°08'0 0.0
2017-Nov-12 03:59N 34°14' E 135°08'0 0.1
2017-Nov-12 03:29N 34°14' E 135°08'0 0.1
2017-Nov-12 02:59N 34°14' E 135°08'1 2.6
2017-Nov-12 02:30N 34°14' E 135°06'5 9.2
2017-Nov-12 02:00N 34°10' E 135°04'  

Dump ship's entire track history